Weather reports worldwide

Advertisment
Molina De Aragon, Spain (8232): temperature & dewpoint: 09.01.2021 19:00:00 - 15.01.2021 19:00:00 (CET)Molina De Aragon, Spain (8232): wind speed: 09.01.2021 19:00:00 - 15.01.2021 19:00:00 (CET)Molina De Aragon, Spain (8232): wind direction: 09.01.2021 19:00:00 - 15.01.2021 19:00:00 (CET)Molina De Aragon, Spain (8232): visibility: 09.01.2021 19:00:00 - 15.01.2021 19:00:00 (CET)Molina De Aragon, Spain (8232): precipitation: 09.01.2021 19:00:00 - 15.01.2021 19:00:00 (CET)
Date & Time tt [°C] td [°C] ff [km/h] ff [kn] dd vv [km] rr [mm]
15.01.2021 19:00:00 - - - - - - -
15.01.2021 18:00:00 3,4 -3,2 5 3 NW 20 0,0
15.01.2021 17:00:00 5,8 -2,8 8 4 N 20 0,0
15.01.2021 16:00:00 6,1 -2,3 4 2 W 20 -
15.01.2021 15:00:00 2,8 -1,8 11 6 N 20 0,0
15.01.2021 14:00:00 -1,0 -4,5 4 2 ENE 20 0,0
15.01.2021 13:00:00 -3,1 -4,5 4 2 S 20 -
15.01.2021 12:00:00 -3,9 -4,7 2 1 S 13 0,0
15.01.2021 11:00:00 -5,6 -6,6 2 1 SSE 0,9 0,0
15.01.2021 10:00:00 -6,6 -7,5 2 1 E 0,2 -
15.01.2021 09:00:00 -7,6 -8,7 2 1 S 0,2 0,0
15.01.2021 08:00:00 -8,4 -9,6 2 1 SW 0,2 0,0
15.01.2021 07:00:00 -8,9 -10,1 0 0 N 0,5 -
15.01.2021 06:00:00 -9,5 -10,7 2 1 WSW 0,4 0,0
15.01.2021 05:00:00 -10,5 -11,8 2 1 SE 0,3 0,0
15.01.2021 04:00:00 -11,2 -12,5 2 1 SE 0,2 -
15.01.2021 03:00:00 -12,3 -13,6 0 0 N - 0,0
15.01.2021 02:00:00 -12,4 -14,5 2 1 E 20 0,0
15.01.2021 01:00:00 -11,3 -13,3 2 1 ENE 20 -
15.01.2021 00:00:00 -10,4 -12,3 2 1 NE 20 0,0
14.01.2021 23:00:00 -9,9 -11,8 2 1 SW 20 0,0
14.01.2021 22:00:00 -11,0 -13,0 2 1 S 20 -
14.01.2021 21:00:00 -10,1 -12,7 2 1 S 18 0,0
14.01.2021 20:00:00 -10,0 -12,5 2 1 ESE 20 0,0
14.01.2021 19:00:00 -9,1 -12,7 4 2 E 19 -
14.01.2021 18:00:00 -5,7 -10,9 2 1 E 20 0,0
14.01.2021 17:00:00 -2,9 -9,4 2 1 SE 20 0,0
14.01.2021 16:00:00 -2,4 -9,3 4 2 S 20 -
14.01.2021 15:00:00 -4,3 -10,7 4 2 S 20 0,0
14.01.2021 14:00:00 -7,1 -13,0 4 2 SSE 20 0,0
14.01.2021 13:00:00 -9,8 -15,0 4 2 SE 20 -
14.01.2021 12:00:00 -13,4 -17,1 4 2 SSE 19 0,0
14.01.2021 11:00:00 -17,7 -19,7 4 2 SE 17 0,0
14.01.2021 10:00:00 -20,3 -22,4 2 1 SE 0,9 -
14.01.2021 09:00:00 -21,6 -24,1 2 1 E 15 0,0
14.01.2021 08:00:00 -20,8 -23,3 2 1 ENE 10 0,0
14.01.2021 07:00:00 -20,1 -22,2 4 2 E 0,8 -
14.01.2021 06:00:00 -19,8 -22,5 2 1 ENE 15 0,0
14.01.2021 05:00:00 -19,3 -22,0 2 1 ENE 14 0,0
14.01.2021 04:00:00 -18,3 -21,0 2 1 E 20 -
14.01.2021 03:00:00 -17,0 -19,3 2 1 E 20 0,0
14.01.2021 02:00:00 -16,6 -19,2 2 1 E 20 0,0
14.01.2021 01:00:00 -15,5 -18,0 2 1 ENE 20 -
14.01.2021 00:00:00 -14,5 -16,9 2 1 E 20 0,0
13.01.2021 23:00:00 -13,8 -16,4 2 1 SSE 20 0,0
13.01.2021 22:00:00 -12,6 -15,0 0 0 N 19 -
13.01.2021 21:00:00 -11,5 -14,3 2 1 ESE 18 0,0
13.01.2021 20:00:00 -10,2 -13,0 2 1 E 18 0,0
13.01.2021 19:00:00 -8,1 -12,1 2 1 ESE 20 -
13.01.2021 18:00:00 -4,1 -9,9 2 1 E 20 0,0
13.01.2021 17:00:00 -0,8 -7,6 2 1 SE 20 0,0
13.01.2021 16:00:00 -1,9 -8,2 2 1 ESE 20 -
13.01.2021 15:00:00 -2,3 -9,0 4 2 ESE 20 0,0
13.01.2021 14:00:00 -4,1 -10,5 4 2 SSE 20 0,0
13.01.2021 13:00:00 -7,3 -12,8 4 2 SE 20 -
13.01.2021 12:00:00 -10,3 -14,6 2 1 S 20 0,0
13.01.2021 11:00:00 -14,1 -17,4 4 2 SE 19 0,0
13.01.2021 10:00:00 -18,0 -20,0 2 1 S 20 -
13.01.2021 09:00:00 -19,6 -22,0 2 1 ESE 15 0,0
13.01.2021 08:00:00 -19,8 -22,2 2 1 E 16 0,0
13.01.2021 07:00:00 -19,7 -22,3 2 1 ESE 1,9 -
13.01.2021 06:00:00 -19,7 -22,3 2 1 NNE 20 0,0
13.01.2021 05:00:00 -19,6 -22,3 2 1 E 20 0,0
13.01.2021 04:00:00 -19,3 -21,7 2 1 E 20 -
13.01.2021 03:00:00 -19,1 -21,8 2 1 ENE 20 0,0
13.01.2021 02:00:00 -18,8 -21,4 2 1 E 18 0,0
13.01.2021 01:00:00 -18,3 -21,2 0 0 N 20 -
13.01.2021 00:00:00 -17,5 -20,0 2 1 E 15 0,0
12.01.2021 23:00:00 -17,2 -19,8 2 1 NE 19 0,0
12.01.2021 22:00:00 -16,7 -19,3 2 1 ESE 17 -
12.01.2021 21:00:00 -15,7 -18,5 4 2 E 15 0,0
12.01.2021 20:00:00 -14,4 -17,7 2 1 E 18 0,0
12.01.2021 19:00:00 -12,2 -16,1 4 2 E 16 -
12.01.2021 18:00:00 -8,4 -13,8 2 1 ESE 20 0,0
12.01.2021 17:00:00 -5,4 -12,2 2 1 SE 20 0,0
12.01.2021 16:00:00 -6,4 -12,3 4 2 ENE 20 -
12.01.2021 15:00:00 -6,6 -13,1 2 1 E 20 0,0
12.01.2021 14:00:00 -8,8 -15,0 4 2 S 20 0,0
12.01.2021 13:00:00 -12,3 -17,4 5 3 ENE 20 -
12.01.2021 12:00:00 -14,3 -18,6 4 2 SSE 18 0,0
12.01.2021 11:00:00 -18,3 -21,3 4 2 SSE 20 0,0
12.01.2021 10:00:00 -22,4 -24,8 4 2 SE 20 -
12.01.2021 09:00:00 -24,2 -26,9 2 1 E 11 0,0
12.01.2021 08:00:00 -24,3 -27,0 2 1 E 12 0,0
12.01.2021 07:00:00 -24,9 -27,8 2 1 ENE 17 -
12.01.2021 06:00:00 -25,1 -27,8 2 1 NE 20 0,0
12.01.2021 05:00:00 -24,9 -28,1 2 1 ENE 18 0,0
12.01.2021 04:00:00 -24,2 -27,2 2 1 ENE 19 -
12.01.2021 03:00:00 -23,6 -26,4 2 1 E 17 0,0
12.01.2021 02:00:00 -23,0 -25,8 4 2 E 19 0,0
12.01.2021 01:00:00 -22,0 -24,8 4 2 E 17 -
12.01.2021 00:00:00 -21,1 -24,1 4 2 ENE 13 0,0
11.01.2021 23:00:00 -19,5 -22,2 2 1 E 16 0,0
11.01.2021 22:00:00 -18,2 -21,1 4 2 E 13 -
11.01.2021 21:00:00 -16,5 -19,3 2 1 E 16 0,0
11.01.2021 20:00:00 -14,5 -17,6 2 1 SE 16 0,0
11.01.2021 19:00:00 -11,8 -15,3 2 1 E 19 -
11.01.2021 18:00:00 -7,2 -12,5 2 1 ENE 19 0,0
11.01.2021 17:00:00 -3,5 -10,6 4 2 E 20 0,0
11.01.2021 16:00:00 -2,9 -9,4 2 1 SE 20 -
11.01.2021 15:00:00 -3,7 -10,3 2 1 SE 20 0,0
11.01.2021 14:00:00 -4,6 -11,0 4 2 SSE 20 0,0
11.01.2021 13:00:00 -7,1 -12,8 4 2 S 20 -
11.01.2021 12:00:00 -10,3 -14,4 2 1 ESE 19 0,0
11.01.2021 11:00:00 -14,3 -16,0 4 2 SSE 19 0,0
11.01.2021 10:00:00 -17,3 -19,1 2 1 E 0,9 -
11.01.2021 09:00:00 -18,3 -21,0 2 1 ENE 19 0,0
11.01.2021 08:00:00 -17,0 -19,8 2 1 E 20 0,0
11.01.2021 07:00:00 -14,9 -17,1 4 2 E 20 -
11.01.2021 06:00:00 -12,2 -14,6 2 1 ENE 19 0,0
11.01.2021 05:00:00 -9,3 -12,3 2 1 ENE 20 0,0
11.01.2021 04:00:00 -5,3 -8,2 2 1 W 20 -
11.01.2021 03:00:00 -3,7 -6,3 2 1 N 20 0,0
11.01.2021 02:00:00 -3,3 -5,6 4 2 NNW 20 0,0
11.01.2021 01:00:00 -2,9 -5,2 4 2 NNW 20 -
11.01.2021 00:00:00 -2,5 -4,8 4 2 N 20 0,0
10.01.2021 23:00:00 -2,1 -4,3 4 2 N 19 0,0
10.01.2021 22:00:00 -1,8 -3,4 2 1 ESE 19 -
10.01.2021 21:00:00 -1,7 -3,1 2 1 NNE 18 0,0
10.01.2021 20:00:00 -1,8 -3,2 2 1 SW 16 0,0
10.01.2021 19:00:00 -1,7 -3,3 2 1 NE 14 -
10.01.2021 18:00:00 -0,8 -2,8 2 1 E 6 0,0
10.01.2021 17:00:00 0,0 -2,9 2 1 SSE 20 0,0
10.01.2021 16:00:00 0,7 -2,4 2 1 E 20 -
10.01.2021 15:00:00 0,3 -2,7 4 2 SSE 20 0,0
10.01.2021 14:00:00 0,1 -2,4 8 4 N 20 0,0
10.01.2021 13:00:00 -0,6 -3,1 4 2 SE 20 -
10.01.2021 12:00:00 -1,0 -3,2 5 3 ESE 20 0,0
10.01.2021 11:00:00 -1,9 -3,2 5 3 ESE 17 0,0
10.01.2021 10:00:00 -2,7 -3,7 4 2 ESE 6 -
10.01.2021 09:00:00 -3,2 -4,2 4 2 ESE 6 0,0
10.01.2021 08:00:00 -3,4 -4,4 4 2 E 20 0,0
10.01.2021 07:00:00 -3,6 -4,4 4 2 NE 18 -
10.01.2021 06:00:00 -3,7 -4,5 2 1 ENE - 0,0
10.01.2021 05:00:00 -3,9 -4,9 5 3 NNE 14 0,0
10.01.2021 04:00:00 -4,3 -5,4 4 2 NNE 15 -
10.01.2021 03:00:00 -4,4 -5,5 2 1 ESE 20 0,0
10.01.2021 02:00:00 -4,7 -5,7 2 1 SSE 20 0,0
10.01.2021 01:00:00 -5,9 -7,0 4 2 E 20 -
10.01.2021 00:00:00 -6,5 -8,0 2 1 NNE 20 0,0
09.01.2021 23:00:00 -5,4 -7,2 2 1 E 18 0,0
09.01.2021 22:00:00 -3,5 -4,9 2 1 SE 20 -
09.01.2021 21:00:00 -3,5 -5,1 2 1 SSE 20 0,0
09.01.2021 20:00:00 -3,4 -5,0 2 1 E 18 0,0
09.01.2021 19:00:00 -3,1 -4,7 2 1 N 2,0 -

tt = temperature
td = dewpoint
ff = wind speed
dd = wind direction
vv = visibility
rr = precipitation

Next stations